sensor_id;sensor_type;location;lat;lon;timestamp;temperature;humidity
14775;DHT22;7479;47.042;15.160;2023-03-23T06:43:26;6.30;99.90
14775;DHT22;7479;47.042;15.160;2023-03-23T06:48:31;6.60;99.90
14775;DHT22;7479;47.042;15.160;2023-03-23T06:53:25;6.90;99.90
14775;DHT22;7479;47.042;15.160;2023-03-23T06:58:20;7.20;99.90
14775;DHT22;7479;47.042;15.160;2023-03-23T07:03:17;7.50;99.90
14775;DHT22;7479;47.042;15.160;2023-03-23T07:08:10;7.80;99.90
14775;DHT22;7479;47.042;15.160;2023-03-23T07:13:11;8.00;99.90
14775;DHT22;7479;47.042;15.160;2023-03-23T07:18:11;8.30;99.90
14775;DHT22;7479;47.042;15.160;2023-03-23T07:23:09;8.60;99.90
14775;DHT22;7479;47.042;15.160;2023-03-23T07:28:09;8.90;99.90
14775;DHT22;7479;47.042;15.160;2023-03-23T07:33:05;9.30;99.90
14775;DHT22;7479;47.042;15.160;2023-03-23T07:37:58;9.60;99.90
14775;DHT22;7479;47.042;15.160;2023-03-23T07:42:55;9.90;99.90
14775;DHT22;7479;47.042;15.160;2023-03-23T07:48:04;10.20;99.90
14775;DHT22;7479;47.042;15.160;2023-03-23T07:52:57;10.50;99.90
14775;DHT22;7479;47.042;15.160;2023-03-23T07:57:55;10.70;99.90
14775;DHT22;7479;47.042;15.160;2023-03-23T08:02:49;10.80;99.90
14775;DHT22;7479;47.042;15.160;2023-03-23T08:08:11;11.00;99.90
14775;DHT22;7479;47.042;15.160;2023-03-23T08:13:34;11.30;99.90
14775;DHT22;7479;47.042;15.160;2023-03-23T08:19:05;11.50;99.90
14775;DHT22;7479;47.042;15.160;2023-03-23T08:24:12;11.80;99.90
14775;DHT22;7479;47.042;15.160;2023-03-23T08:29:23;12.10;99.90
14775;DHT22;7479;47.042;15.160;2023-03-23T08:34:15;12.40;99.90
14775;DHT22;7479;47.042;15.160;2023-03-23T08:39:26;12.60;99.90
14775;DHT22;7479;47.042;15.160;2023-03-23T08:44:43;12.90;99.90
14775;DHT22;7479;47.042;15.160;2023-03-23T08:49:44;13.20;99.90
14775;DHT22;7479;47.042;15.160;2023-03-23T08:54:59;13.50;99.90
14775;DHT22;7479;47.042;15.160;2023-03-23T09:00:10;13.80;99.90
14775;DHT22;7479;47.042;15.160;2023-03-23T09:05:27;14.00;99.90
14775;DHT22;7479;47.042;15.160;2023-03-23T09:10:28;14.30;99.90
14775;DHT22;7479;47.042;15.160;2023-03-23T09:15:23;14.70;99.90
14775;DHT22;7479;47.042;15.160;2023-03-23T09:20:17;14.90;99.90
14775;DHT22;7479;47.042;15.160;2023-03-23T09:25:13;15.10;99.90
14775;DHT22;7479;47.042;15.160;2023-03-23T09:30:09;15.30;99.90
14775;DHT22;7479;47.042;15.160;2023-03-23T09:35:06;15.50;99.90
14775;DHT22;7479;47.042;15.160;2023-03-23T09:39:59;15.80;99.90
14775;DHT22;7479;47.042;15.160;2023-03-23T09:45:05;16.20;99.90
14775;DHT22;7479;47.042;15.160;2023-03-23T09:50:01;16.60;99.10
14775;DHT22;7479;47.042;15.160;2023-03-23T09:54:55;16.80;97.90
14775;DHT22;7479;47.042;15.160;2023-03-23T09:59:52;16.80;97.70
14775;DHT22;7479;47.042;15.160;2023-03-23T10:04:48;17.30;97.30
14775;DHT22;7479;47.042;15.160;2023-03-23T10:09:41;17.80;96.20
14775;DHT22;7479;47.042;15.160;2023-03-23T10:14:56;18.00;95.40
14775;DHT22;7479;47.042;15.160;2023-03-23T10:19:55;18.40;95.30
14775;DHT22;7479;47.042;15.160;2023-03-23T10:24:52;18.70;94.30
14775;DHT22;7479;47.042;15.160;2023-03-23T10:29:53;19.10;93.50
14775;DHT22;7479;47.042;15.160;2023-03-23T10:34:54;19.60;91.80
14775;DHT22;7479;47.042;15.160;2023-03-23T10:39:50;20.00;86.20
14775;DHT22;7479;47.042;15.160;2023-03-23T10:44:43;20.60;85.30
14775;DHT22;7479;47.042;15.160;2023-03-23T10:49:40;21.30;83.60
14775;DHT22;7479;47.042;15.160;2023-03-23T10:54:37;21.50;81.00
14775;DHT22;7479;47.042;15.160;2023-03-23T10:59:31;21.20;80.70
14775;DHT22;7479;47.042;15.160;2023-03-23T11:04:24;21.00;80.60
14775;DHT22;7479;47.042;15.160;2023-03-23T11:09:19;21.00;80.40
14775;DHT22;7479;47.042;15.160;2023-03-23T11:14:16;20.90;79.50
14775;DHT22;7479;47.042;15.160;2023-03-23T11:19:14;20.20;81.20
14775;DHT22;7479;47.042;15.160;2023-03-23T11:24:08;19.90;82.70
14775;DHT22;7479;47.042;15.160;2023-03-23T11:29:05;19.90;82.30
14775;DHT22;7479;47.042;15.160;2023-03-23T11:34:04;19.80;83.60
14775;DHT22;7479;47.042;15.160;2023-03-23T11:39:01;20.40;82.70
14775;DHT22;7479;47.042;15.160;2023-03-23T11:43:55;21.50;80.00
14775;DHT22;7479;47.042;15.160;2023-03-23T11:48:55;22.10;76.80
14775;DHT22;7479;47.042;15.160;2023-03-23T11:53:57;22.60;75.40
14775;DHT22;7479;47.042;15.160;2023-03-23T11:58:54;23.00;74.10
14775;DHT22;7479;47.042;15.160;2023-03-23T12:09:18;22.90;71.10
14775;DHT22;7479;47.042;15.160;2023-03-23T12:14:20;22.80;71.10
14775;DHT22;7479;47.042;15.160;2023-03-23T12:19:21;22.70;69.80
14775;DHT22;7479;47.042;15.160;2023-03-23T12:24:29;22.40;70.50
14775;DHT22;7479;47.042;15.160;2023-03-23T12:34:49;22.30;70.30
14775;DHT22;7479;47.042;15.160;2023-03-23T12:40:04;23.30;69.60
14775;DHT22;7479;47.042;15.160;2023-03-23T12:45:07;23.80;67.30
14775;DHT22;7479;47.042;15.160;2023-03-23T12:50:10;24.10;65.90
14775;DHT22;7479;47.042;15.160;2023-03-23T12:55:17;24.80;64.30
14775;DHT22;7479;47.042;15.160;2023-03-23T13:00:17;25.20;63.10
14775;DHT22;7479;47.042;15.160;2023-03-23T13:05:24;24.60;61.20
14775;DHT22;7479;47.042;15.160;2023-03-23T13:10:22;24.00;61.50
14775;DHT22;7479;47.042;15.160;2023-03-23T13:15:23;23.60;61.90
14775;DHT22;7479;47.042;15.160;2023-03-23T13:20:40;23.50;62.60
14775;DHT22;7479;47.042;15.160;2023-03-23T13:25:47;24.00;61.70
14775;DHT22;7479;47.042;15.160;2023-03-23T13:30:41;24.20;59.70
14775;DHT22;7479;47.042;15.160;2023-03-23T13:35:44;24.50;59.10
14775;DHT22;7479;47.042;15.160;2023-03-23T13:40:43;25.00;58.00
14775;DHT22;7479;47.042;15.160;2023-03-23T13:45:43;25.40;57.50
14775;DHT22;7479;47.042;15.160;2023-03-23T13:50:44;25.70;57.30
14775;DHT22;7479;47.042;15.160;2023-03-23T13:55:48;25.70;57.10
14775;DHT22;7479;47.042;15.160;2023-03-23T14:00:47;25.90;56.80
14775;DHT22;7479;47.042;15.160;2023-03-23T14:05:42;26.40;54.50
14775;DHT22;7479;47.042;15.160;2023-03-23T14:10:37;26.90;54.00
14775;DHT22;7479;47.042;15.160;2023-03-23T14:15:40;26.80;53.10
14775;DHT22;7479;47.042;15.160;2023-03-23T14:20:36;26.90;52.90
14775;DHT22;7479;47.042;15.160;2023-03-23T14:25:33;26.90;53.10
14775;DHT22;7479;47.042;15.160;2023-03-23T14:30:28;28.70;51.70
14775;DHT22;7479;47.042;15.160;2023-03-23T14:35:30;30.50;49.10
14775;DHT22;7479;47.042;15.160;2023-03-23T14:40:23;31.60;45.90
14775;DHT22;7479;47.042;15.160;2023-03-23T14:45:19;31.80;45.00
14775;DHT22;7479;47.042;15.160;2023-03-23T14:50:28;32.50;43.20
14775;DHT22;7479;47.042;15.160;2023-03-23T14:55:23;32.90;42.20
14775;DHT22;7479;47.042;15.160;2023-03-23T15:00:21;33.20;41.40
14775;DHT22;7479;47.042;15.160;2023-03-23T15:05:16;33.00;40.40
14775;DHT22;7479;47.042;15.160;2023-03-23T15:10:16;32.70;40.30
14775;DHT22;7479;47.042;15.160;2023-03-23T15:15:26;31.80;40.90
14775;DHT22;7479;47.042;15.160;2023-03-23T15:20:22;31.60;40.90
14775;DHT22;7479;47.042;15.160;2023-03-23T15:25:20;32.30;40.60
14775;DHT22;7479;47.042;15.160;2023-03-23T15:30:18;32.20;39.60
14775;DHT22;7479;47.042;15.160;2023-03-23T15:35:20;30.90;41.10
14775;DHT22;7479;47.042;15.160;2023-03-23T15:40:18;30.80;42.00
14775;DHT22;7479;47.042;15.160;2023-03-23T15:45:24;31.30;41.10
14775;DHT22;7479;47.042;15.160;2023-03-23T15:50:19;30.80;41.50
14775;DHT22;7479;47.042;15.160;2023-03-23T15:55:23;31.10;41.30
14775;DHT22;7479;47.042;15.160;2023-03-23T16:00:17;30.60;41.80
14775;DHT22;7479;47.042;15.160;2023-03-23T16:05:11;29.40;43.70
14775;DHT22;7479;47.042;15.160;2023-03-23T16:10:10;28.50;45.50
14775;DHT22;7479;47.042;15.160;2023-03-23T16:15:09;27.80;46.90
14775;DHT22;7479;47.042;15.160;2023-03-23T16:20:10;25.70;50.00
14775;DHT22;7479;47.042;15.160;2023-03-23T16:25:04;24.10;52.80
14775;DHT22;7479;47.042;15.160;2023-03-23T16:29:58;23.10;54.90
14775;DHT22;7479;47.042;15.160;2023-03-23T16:34:58;22.60;56.60
14775;DHT22;7479;47.042;15.160;2023-03-23T16:39:51;22.30;57.50
14775;DHT22;7479;47.042;15.160;2023-03-23T16:44:45;22.00;58.20
14775;DHT22;7479;47.042;15.160;2023-03-23T16:49:41;21.60;59.40
14775;DHT22;7479;47.042;15.160;2023-03-23T16:54:36;21.30;60.40
14775;DHT22;7479;47.042;15.160;2023-03-23T16:59:30;20.80;62.70
14775;DHT22;7479;47.042;15.160;2023-03-23T17:04:23;20.40;64.40
14775;DHT22;7479;47.042;15.160;2023-03-23T17:09:17;20.20;66.10
14775;DHT22;7479;47.042;15.160;2023-03-23T17:14:12;19.80;67.70
14775;DHT22;7479;47.042;15.160;2023-03-23T17:19:05;19.40;69.70
14775;DHT22;7479;47.042;15.160;2023-03-23T17:23:59;19.10;71.10
14775;DHT22;7479;47.042;15.160;2023-03-23T17:28:53;18.80;73.20
14775;DHT22;7479;47.042;15.160;2023-03-23T17:33:47;18.50;74.00
14775;DHT22;7479;47.042;15.160;2023-03-23T17:38:42;18.20;75.40
14775;DHT22;7479;47.042;15.160;2023-03-23T17:43:36;17.90;76.80
14775;DHT22;7479;47.042;15.160;2023-03-23T17:48:31;17.70;78.70
14775;DHT22;7479;47.042;15.160;2023-03-23T17:53:28;17.40;80.50
14775;DHT22;7479;47.042;15.160;2023-03-23T17:58:23;17.20;81.90
14775;DHT22;7479;47.042;15.160;2023-03-23T18:03:17;17.00;83.00
14775;DHT22;7479;47.042;15.160;2023-03-23T18:08:11;16.80;83.60
14775;DHT22;7479;47.042;15.160;2023-03-23T18:13:07;16.50;85.10
14775;DHT22;7479;47.042;15.160;2023-03-23T18:18:00;16.20;86.90
14775;DHT22;7479;47.042;15.160;2023-03-23T18:22:54;16.10;88.00
14775;DHT22;7479;47.042;15.160;2023-03-23T18:27:50;16.00;89.10
14775;DHT22;7479;47.042;15.160;2023-03-23T18:32:44;15.80;90.00
14775;DHT22;7479;47.042;15.160;2023-03-23T18:37:38;15.50;90.60
14775;DHT22;7479;47.042;15.160;2023-03-23T18:42:32;15.30;91.40
14775;DHT22;7479;47.042;15.160;2023-03-23T18:47:26;15.10;92.20
